sensor_id;sensor_type;location;lat;lon;timestamp;P1;durP1;ratioP1;P2;durP2;ratioP2
50976;SDS011;36992;48.200;12.418;2022-11-20T00:00:29;1.13;;;0.40;;
50976;SDS011;36992;48.200;12.418;2022-11-20T00:02:56;2.55;;;0.60;;
50976;SDS011;36992;48.200;12.418;2022-11-20T00:05:22;0.82;;;0.22;;
50976;SDS011;36992;48.200;12.418;2022-11-20T00:07:49;1.33;;;0.40;;
50976;SDS011;36992;48.200;12.418;2022-11-20T00:10:16;0.98;;;0.40;;
50976;SDS011;36992;48.200;12.418;2022-11-20T00:12:42;1.13;;;0.40;;
50976;SDS011;36992;48.200;12.418;2022-11-20T00:15:11;0.60;;;0.20;;
50976;SDS011;36992;48.200;12.418;2022-11-20T00:17:37;1.52;;;0.50;;
50976;SDS011;36992;48.200;12.418;2022-11-20T00:20:04;1.25;;;0.38;;
50976;SDS011;36992;48.200;12.418;2022-11-20T00:22:31;2.15;;;0.30;;
50976;SDS011;36992;48.200;12.418;2022-11-20T00:24:58;1.58;;;0.40;;
50976;SDS011;36992;48.200;12.418;2022-11-20T00:27:24;1.30;;;0.68;;
50976;SDS011;36992;48.200;12.418;2022-11-20T00:29:51;6.35;;;0.80;;
50976;SDS011;36992;48.200;12.418;2022-11-20T00:32:18;1.85;;;0.47;;
50976;SDS011;36992;48.200;12.418;2022-11-20T00:34:45;0.93;;;0.40;;
50976;SDS011;36992;48.200;12.418;2022-11-20T00:37:11;2.08;;;0.80;;
50976;SDS011;36992;48.200;12.418;2022-11-20T00:39:38;3.38;;;1.10;;
50976;SDS011;36992;48.200;12.418;2022-11-20T00:42:04;0.88;;;0.30;;
50976;SDS011;36992;48.200;12.418;2022-11-20T00:44:31;2.22;;;0.43;;
50976;SDS011;36992;48.200;12.418;2022-11-20T00:46:57;1.88;;;0.43;;
50976;SDS011;36992;48.200;12.418;2022-11-20T00:49:25;1.02;;;0.55;;
50976;SDS011;36992;48.200;12.418;2022-11-20T00:51:52;2.00;;;0.47;;
50976;SDS011;36992;48.200;12.418;2022-11-20T00:54:18;1.63;;;0.40;;
50976;SDS011;36992;48.200;12.418;2022-11-20T00:56:45;1.80;;;0.90;;
50976;SDS011;36992;48.200;12.418;2022-11-20T00:59:11;2.58;;;0.73;;
50976;SDS011;36992;48.200;12.418;2022-11-20T01:01:38;1.92;;;0.65;;
50976;SDS011;36992;48.200;12.418;2022-11-20T01:04:05;2.10;;;0.50;;
50976;SDS011;36992;48.200;12.418;2022-11-20T01:06:33;1.30;;;0.47;;
50976;SDS011;36992;48.200;12.418;2022-11-20T01:09:02;1.65;;;0.60;;
50976;SDS011;36992;48.200;12.418;2022-11-20T01:11:32;2.20;;;0.70;;
50976;SDS011;36992;48.200;12.418;2022-11-20T01:14:00;2.25;;;1.13;;
50976;SDS011;36992;48.200;12.418;2022-11-20T01:16:29;2.45;;;0.75;;
50976;SDS011;36992;48.200;12.418;2022-11-20T01:18:58;2.63;;;0.80;;
50976;SDS011;36992;48.200;12.418;2022-11-20T01:21:27;1.98;;;0.60;;
50976;SDS011;36992;48.200;12.418;2022-11-20T01:23:56;3.22;;;1.20;;
50976;SDS011;36992;48.200;12.418;2022-11-20T01:26:25;1.65;;;0.60;;
50976;SDS011;36992;48.200;12.418;2022-11-20T01:28:53;0.80;;;0.35;;
50976;SDS011;36992;48.200;12.418;2022-11-20T01:31:21;1.23;;;0.50;;
50976;SDS011;36992;48.200;12.418;2022-11-20T01:33:50;1.33;;;0.50;;
50976;SDS011;36992;48.200;12.418;2022-11-20T01:36:19;1.70;;;0.55;;
50976;SDS011;36992;48.200;12.418;2022-11-20T01:38:47;1.88;;;0.70;;
50976;SDS011;36992;48.200;12.418;2022-11-20T01:41:18;3.75;;;0.95;;
50976;SDS011;36992;48.200;12.418;2022-11-20T01:43:59;5.22;;;0.68;;
50976;SDS011;36992;48.200;12.418;2022-11-20T01:46:26;1.20;;;0.40;;
50976;SDS011;36992;48.200;12.418;2022-11-20T01:48:54;1.52;;;0.65;;
50976;SDS011;36992;48.200;12.418;2022-11-20T01:51:26;2.90;;;0.50;;
50976;SDS011;36992;48.200;12.418;2022-11-20T01:53:55;2.78;;;0.88;;
50976;SDS011;36992;48.200;12.418;2022-11-20T01:56:27;1.08;;;0.40;;
50976;SDS011;36992;48.200;12.418;2022-11-20T01:58:58;0.80;;;0.40;;
50976;SDS011;36992;48.200;12.418;2022-11-20T02:01:27;1.55;;;0.60;;
50976;SDS011;36992;48.200;12.418;2022-11-20T02:03:54;2.85;;;0.70;;
50976;SDS011;36992;48.200;12.418;2022-11-20T02:06:22;2.25;;;0.82;;
50976;SDS011;36992;48.200;12.418;2022-11-20T02:08:51;2.38;;;0.43;;
50976;SDS011;36992;48.200;12.418;2022-11-20T02:11:18;1.25;;;0.40;;
50976;SDS011;36992;48.200;12.418;2022-11-20T02:13:47;2.13;;;0.50;;
50976;SDS011;36992;48.200;12.418;2022-11-20T02:16:15;1.30;;;0.60;;
50976;SDS011;36992;48.200;12.418;2022-11-20T02:18:44;1.08;;;0.30;;
50976;SDS011;36992;48.200;12.418;2022-11-20T02:21:18;1.13;;;0.40;;
50976;SDS011;36992;48.200;12.418;2022-11-20T02:24:08;1.95;;;0.57;;
50976;SDS011;36992;48.200;12.418;2022-11-20T02:26:39;1.00;;;0.40;;
50976;SDS011;36992;48.200;12.418;2022-11-20T02:29:10;0.77;;;0.28;;
50976;SDS011;36992;48.200;12.418;2022-11-20T02:31:38;1.38;;;0.30;;
50976;SDS011;36992;48.200;12.418;2022-11-20T02:34:08;1.02;;;0.30;;
50976;SDS011;36992;48.200;12.418;2022-11-20T02:36:35;2.65;;;0.47;;
50976;SDS011;36992;48.200;12.418;2022-11-20T02:39:05;1.33;;;0.40;;
50976;SDS011;36992;48.200;12.418;2022-11-20T02:41:34;1.42;;;0.50;;
50976;SDS011;36992;48.200;12.418;2022-11-20T02:44:02;0.73;;;0.28;;
50976;SDS011;36992;48.200;12.418;2022-11-20T02:46:31;2.42;;;0.40;;
50976;SDS011;36992;48.200;12.418;2022-11-20T02:48:58;0.90;;;0.40;;
50976;SDS011;36992;48.200;12.418;2022-11-20T02:51:24;1.45;;;0.50;;
50976;SDS011;36992;48.200;12.418;2022-11-20T02:53:51;1.25;;;0.30;;
50976;SDS011;36992;48.200;12.418;2022-11-20T02:56:17;1.10;;;0.70;;
50976;SDS011;36992;48.200;12.418;2022-11-20T02:58:45;1.65;;;0.30;;
50976;SDS011;36992;48.200;12.418;2022-11-20T03:01:12;1.10;;;0.52;;
50976;SDS011;36992;48.200;12.418;2022-11-20T03:03:39;1.85;;;0.50;;
50976;SDS011;36992;48.200;12.418;2022-11-20T03:06:05;2.38;;;0.50;;
50976;SDS011;36992;48.200;12.418;2022-11-20T03:08:32;1.30;;;0.40;;
50976;SDS011;36992;48.200;12.418;2022-11-20T03:11:01;1.35;;;0.52;;
50976;SDS011;36992;48.200;12.418;2022-11-20T03:13:28;2.10;;;0.40;;
50976;SDS011;36992;48.200;12.418;2022-11-20T03:15:56;1.88;;;0.40;;
50976;SDS011;36992;48.200;12.418;2022-11-20T03:18:23;0.82;;;0.30;;
50976;SDS011;36992;48.200;12.418;2022-11-20T03:20:49;1.48;;;0.50;;
50976;SDS011;36992;48.200;12.418;2022-11-20T03:23:16;1.40;;;0.50;;
50976;SDS011;36992;48.200;12.418;2022-11-20T03:25:42;1.27;;;0.43;;
50976;SDS011;36992;48.200;12.418;2022-11-20T03:28:09;0.68;;;0.30;;
50976;SDS011;36992;48.200;12.418;2022-11-20T03:30:35;2.90;;;0.52;;
50976;SDS011;36992;48.200;12.418;2022-11-20T03:33:03;2.80;;;0.50;;
50976;SDS011;36992;48.200;12.418;2022-11-20T03:35:30;1.33;;;0.55;;
50976;SDS011;36992;48.200;12.418;2022-11-20T03:37:57;0.90;;;0.30;;
50976;SDS011;36992;48.200;12.418;2022-11-20T03:40:24;1.30;;;0.50;;
50976;SDS011;36992;48.200;12.418;2022-11-20T03:42:50;0.52;;;0.20;;
50976;SDS011;36992;48.200;12.418;2022-11-20T03:45:17;0.52;;;0.20;;
50976;SDS011;36992;48.200;12.418;2022-11-20T03:47:44;1.52;;;0.30;;
50976;SDS011;36992;48.200;12.418;2022-11-20T03:50:12;2.25;;;0.35;;
50976;SDS011;36992;48.200;12.418;2022-11-20T03:52:39;0.68;;;0.30;;
50976;SDS011;36992;48.200;12.418;2022-11-20T03:55:06;1.17;;;0.50;;
50976;SDS011;36992;48.200;12.418;2022-11-20T03:57:33;0.95;;;0.32;;
50976;SDS011;36992;48.200;12.418;2022-11-20T04:00:00;1.00;;;0.30;;
50976;SDS011;36992;48.200;12.418;2022-11-20T04:02:26;1.77;;;0.30;;
50976;SDS011;36992;48.200;12.418;2022-11-20T04:04:53;1.35;;;0.40;;
50976;SDS011;36992;48.200;12.418;2022-11-20T04:07:21;0.95;;;0.40;;
50976;SDS011;36992;48.200;12.418;2022-11-20T04:09:47;0.63;;;0.28;;
50976;SDS011;36992;48.200;12.418;2022-11-20T04:12:14;1.48;;;0.50;;
50976;SDS011;36992;48.200;12.418;2022-11-20T04:14:40;1.70;;;0.55;;
50976;SDS011;36992;48.200;12.418;2022-11-20T04:17:07;2.17;;;0.47;;
50976;SDS011;36992;48.200;12.418;2022-11-20T04:19:33;1.50;;;0.50;;
50976;SDS011;36992;48.200;12.418;2022-11-20T04:22:00;1.70;;;0.55;;
50976;SDS011;36992;48.200;12.418;2022-11-20T04:24:28;1.45;;;0.43;;
50976;SDS011;36992;48.200;12.418;2022-11-20T04:26:55;2.60;;;0.45;;
50976;SDS011;36992;48.200;12.418;2022-11-20T04:29:21;1.42;;;0.57;;
50976;SDS011;36992;48.200;12.418;2022-11-20T04:31:48;2.13;;;0.47;;
50976;SDS011;36992;48.200;12.418;2022-11-20T04:34:14;2.72;;;0.60;;
50976;SDS011;36992;48.200;12.418;2022-11-20T04:36:41;1.42;;;0.50;;
50976;SDS011;36992;48.200;12.418;2022-11-20T04:39:11;1.10;;;0.30;;
50976;SDS011;36992;48.200;12.418;2022-11-20T04:41:41;2.17;;;0.47;;
50976;SDS011;36992;48.200;12.418;2022-11-20T04:44:08;1.60;;;0.60;;
50976;SDS011;36992;48.200;12.418;2022-11-20T04:46:35;1.58;;;0.30;;
50976;SDS011;36992;48.200;12.418;2022-11-20T04:49:03;1.60;;;0.50;;
50976;SDS011;36992;48.200;12.418;2022-11-20T04:51:31;0.90;;;0.30;;
50976;SDS011;36992;48.200;12.418;2022-11-20T04:53:57;1.15;;;0.40;;
50976;SDS011;36992;48.200;12.418;2022-11-20T04:56:24;1.00;;;0.32;;
50976;SDS011;36992;48.200;12.418;2022-11-20T04:58:52;1.15;;;0.45;;
50976;SDS011;36992;48.200;12.418;2022-11-20T05:01:19;1.75;;;0.50;;
50976;SDS011;36992;48.200;12.418;2022-11-20T05:03:48;2.03;;;0.57;;
50976;SDS011;36992;48.200;12.418;2022-11-20T05:06:15;1.08;;;0.40;;
50976;SDS011;36992;48.200;12.418;2022-11-20T05:08:43;0.90;;;0.40;;
50976;SDS011;36992;48.200;12.418;2022-11-20T05:11:11;1.20;;;0.40;;
50976;SDS011;36992;48.200;12.418;2022-11-20T05:13:39;1.27;;;0.20;;
50976;SDS011;36992;48.200;12.418;2022-11-20T05:16:08;1.88;;;0.30;;
50976;SDS011;36992;48.200;12.418;2022-11-20T05:18:36;1.45;;;0.60;;
50976;SDS011;36992;48.200;12.418;2022-11-20T05:21:04;1.00;;;0.30;;
50976;SDS011;36992;48.200;12.418;2022-11-20T05:23:31;2.17;;;0.40;;
50976;SDS011;36992;48.200;12.418;2022-11-20T05:25:59;1.00;;;0.30;;
50976;SDS011;36992;48.200;12.418;2022-11-20T05:28:26;1.50;;;0.30;;
50976;SDS011;36992;48.200;12.418;2022-11-20T05:30:54;0.40;;;0.20;;
50976;SDS011;36992;48.200;12.418;2022-11-20T05:33:23;1.02;;;0.32;;
50976;SDS011;36992;48.200;12.418;2022-11-20T05:35:52;1.90;;;0.40;;
50976;SDS011;36992;48.200;12.418;2022-11-20T05:38:19;0.75;;;0.20;;
50976;SDS011;36992;48.200;12.418;2022-11-20T05:40:47;1.35;;;0.50;;
50976;SDS011;36992;48.200;12.418;2022-11-20T05:43:14;1.13;;;0.35;;
50976;SDS011;36992;48.200;12.418;2022-11-20T05:45:40;1.10;;;0.40;;
50976;SDS011;36992;48.200;12.418;2022-11-20T05:48:07;1.48;;;0.40;;
50976;SDS011;36992;48.200;12.418;2022-11-20T05:50:36;0.77;;;0.30;;
50976;SDS011;36992;48.200;12.418;2022-11-20T05:53:02;1.67;;;0.52;;
50976;SDS011;36992;48.200;12.418;2022-11-20T05:55:29;1.35;;;0.50;;
50976;SDS011;36992;48.200;12.418;2022-11-20T05:57:56;1.88;;;0.60;;
50976;SDS011;36992;48.200;12.418;2022-11-20T06:00:23;1.58;;;0.50;;
50976;SDS011;36992;48.200;12.418;2022-11-20T06:02:49;2.17;;;0.60;;
50976;SDS011;36992;48.200;12.418;2022-11-20T06:05:16;2.53;;;1.00;;
50976;SDS011;36992;48.200;12.418;2022-11-20T06:07:44;2.53;;;0.80;;
50976;SDS011;36992;48.200;12.418;2022-11-20T06:10:11;3.28;;;1.02;;
50976;SDS011;36992;48.200;12.418;2022-11-20T06:12:37;2.70;;;0.85;;
50976;SDS011;36992;48.200;12.418;2022-11-20T06:15:05;1.25;;;0.40;;
50976;SDS011;36992;48.200;12.418;2022-11-20T06:17:32;1.02;;;0.40;;
50976;SDS011;36992;48.200;12.418;2022-11-20T06:19:58;1.13;;;0.45;;
50976;SDS011;36992;48.200;12.418;2022-11-20T06:22:25;1.23;;;0.40;;
50976;SDS011;36992;48.200;12.418;2022-11-20T06:24:53;0.75;;;0.30;;
50976;SDS011;36992;48.200;12.418;2022-11-20T06:27:20;1.23;;;0.32;;
50976;SDS011;36992;48.200;12.418;2022-11-20T06:29:46;1.63;;;1.05;;
50976;SDS011;36992;48.200;12.418;2022-11-20T06:32:13;1.08;;;0.40;;
50976;SDS011;36992;48.200;12.418;2022-11-20T06:34:39;0.73;;;0.40;;
50976;SDS011;36992;48.200;12.418;2022-11-20T06:37:06;1.33;;;0.30;;
50976;SDS011;36992;48.200;12.418;2022-11-20T06:39:32;1.25;;;0.40;;
50976;SDS011;36992;48.200;12.418;2022-11-20T06:42:00;1.33;;;0.43;;
50976;SDS011;36992;48.200;12.418;2022-11-20T06:44:27;1.42;;;0.52;;
50976;SDS011;36992;48.200;12.418;2022-11-20T06:46:54;2.83;;;0.57;;
50976;SDS011;36992;48.200;12.418;2022-11-20T06:49:20;1.63;;;0.50;;
50976;SDS011;36992;48.200;12.418;2022-11-20T06:51:47;1.75;;;0.47;;
50976;SDS011;36992;48.200;12.418;2022-11-20T06:54:13;2.05;;;0.60;;
50976;SDS011;36992;48.200;12.418;2022-11-20T06:56:40;1.58;;;0.57;;
50976;SDS011;36992;48.200;12.418;2022-11-20T06:59:08;1.15;;;0.40;;
50976;SDS011;36992;48.200;12.418;2022-11-20T07:01:34;1.55;;;0.60;;
50976;SDS011;36992;48.200;12.418;2022-11-20T07:04:01;1.55;;;0.60;;
50976;SDS011;36992;48.200;12.418;2022-11-20T07:06:28;1.90;;;0.60;;
50976;SDS011;36992;48.200;12.418;2022-11-20T07:08:55;0.95;;;0.43;;
50976;SDS011;36992;48.200;12.418;2022-11-20T07:11:22;1.35;;;0.50;;
50976;SDS011;36992;48.200;12.418;2022-11-20T07:13:49;0.80;;;0.40;;
50976;SDS011;36992;48.200;12.418;2022-11-20T07:16:17;1.23;;;0.60;;
50976;SDS011;36992;48.200;12.418;2022-11-20T07:18:43;1.02;;;0.43;;
50976;SDS011;36992;48.200;12.418;2022-11-20T07:21:10;1.05;;;0.50;;
50976;SDS011;36992;48.200;12.418;2022-11-20T07:23:37;4.30;;;1.70;;
50976;SDS011;36992;48.200;12.418;2022-11-20T07:26:04;5.20;;;1.70;;
50976;SDS011;36992;48.200;12.418;2022-11-20T07:28:31;6.85;;;1.75;;
50976;SDS011;36992;48.200;12.418;2022-11-20T07:30:58;3.83;;;1.48;;
50976;SDS011;36992;48.200;12.418;2022-11-20T07:33:26;3.45;;;1.77;;
50976;SDS011;36992;48.200;12.418;2022-11-20T07:35:52;2.10;;;0.70;;
50976;SDS011;36992;48.200;12.418;2022-11-20T07:38:19;3.15;;;1.58;;
50976;SDS011;36992;48.200;12.418;2022-11-20T07:40:46;2.63;;;0.95;;
50976;SDS011;36992;48.200;12.418;2022-11-20T07:43:13;2.17;;;0.68;;
50976;SDS011;36992;48.200;12.418;2022-11-20T07:45:40;1.63;;;0.60;;
50976;SDS011;36992;48.200;12.418;2022-11-20T07:48:06;2.85;;;1.42;;
50976;SDS011;36992;48.200;12.418;2022-11-20T07:50:34;4.35;;;1.17;;
50976;SDS011;36992;48.200;12.418;2022-11-20T07:53:02;2.75;;;1.02;;
50976;SDS011;36992;48.200;12.418;2022-11-20T07:55:29;2.78;;;0.90;;
50976;SDS011;36992;48.200;12.418;2022-11-20T07:57:55;2.60;;;0.82;;
50976;SDS011;36992;48.200;12.418;2022-11-20T08:00:22;3.03;;;1.58;;
50976;SDS011;36992;48.200;12.418;2022-11-20T08:02:49;3.35;;;1.20;;
50976;SDS011;36992;48.200;12.418;2022-11-20T08:05:16;2.38;;;0.75;;
50976;SDS011;36992;48.200;12.418;2022-11-20T08:07:44;4.03;;;1.65;;
50976;SDS011;36992;48.200;12.418;2022-11-20T08:10:12;2.85;;;1.25;;
50976;SDS011;36992;48.200;12.418;2022-11-20T08:12:43;3.83;;;1.58;;
50976;SDS011;36992;48.200;12.418;2022-11-20T08:15:27;4.90;;;1.80;;
50976;SDS011;36992;48.200;12.418;2022-11-20T08:17:58;4.47;;;1.60;;
50976;SDS011;36992;48.200;12.418;2022-11-20T08:20:25;2.67;;;1.20;;
50976;SDS011;36992;48.200;12.418;2022-11-20T08:22:53;1.25;;;0.47;;
50976;SDS011;36992;48.200;12.418;2022-11-20T08:25:23;2.30;;;1.60;;
50976;SDS011;36992;48.200;12.418;2022-11-20T08:27:50;2.45;;;0.60;;
50976;SDS011;36992;48.200;12.418;2022-11-20T08:30:16;2.30;;;0.90;;
50976;SDS011;36992;48.200;12.418;2022-11-20T08:32:43;3.25;;;1.00;;
50976;SDS011;36992;48.200;12.418;2022-11-20T08:35:09;2.55;;;1.23;;
50976;SDS011;36992;48.200;12.418;2022-11-20T08:37:36;2.17;;;0.70;;
50976;SDS011;36992;48.200;12.418;2022-11-20T08:40:08;2.35;;;0.88;;
50976;SDS011;36992;48.200;12.418;2022-11-20T08:42:36;2.55;;;0.90;;
50976;SDS011;36992;48.200;12.418;2022-11-20T08:45:02;2.80;;;1.17;;
50976;SDS011;36992;48.200;12.418;2022-11-20T08:47:29;2.33;;;1.00;;
50976;SDS011;36992;48.200;12.418;2022-11-20T08:49:56;2.58;;;1.23;;
50976;SDS011;36992;48.200;12.418;2022-11-20T08:52:23;4.38;;;1.95;;
50976;SDS011;36992;48.200;12.418;2022-11-20T08:54:49;3.38;;;1.08;;
50976;SDS011;36992;48.200;12.418;2022-11-20T08:57:18;3.92;;;2.00;;
50976;SDS011;36992;48.200;12.418;2022-11-20T08:59:44;2.40;;;1.05;;
50976;SDS011;36992;48.200;12.418;2022-11-20T09:02:11;3.75;;;1.27;;
50976;SDS011;36992;48.200;12.418;2022-11-20T09:04:38;2.47;;;0.90;;
50976;SDS011;36992;48.200;12.418;2022-11-20T09:07:04;5.55;;;2.50;;
50976;SDS011;36992;48.200;12.418;2022-11-20T09:09:31;3.72;;;1.00;;
50976;SDS011;36992;48.200;12.418;2022-11-20T09:11:57;1.70;;;0.70;;
50976;SDS011;36992;48.200;12.418;2022-11-20T09:14:25;2.17;;;0.80;;
50976;SDS011;36992;48.200;12.418;2022-11-20T09:16:54;1.65;;;0.57;;
50976;SDS011;36992;48.200;12.418;2022-11-20T09:19:20;2.25;;;0.90;;
50976;SDS011;36992;48.200;12.418;2022-11-20T09:21:47;3.22;;;0.90;;
50976;SDS011;36992;48.200;12.418;2022-11-20T09:24:13;3.95;;;2.03;;
50976;SDS011;36992;48.200;12.418;2022-11-20T09:26:40;2.25;;;1.02;;
50976;SDS011;36992;48.200;12.418;2022-11-20T09:29:07;1.95;;;0.52;;
50976;SDS011;36992;48.200;12.418;2022-11-20T09:31:34;3.88;;;1.75;;
50976;SDS011;36992;48.200;12.418;2022-11-20T09:34:01;2.10;;;0.73;;
50976;SDS011;36992;48.200;12.418;2022-11-20T09:36:28;2.20;;;0.90;;
50976;SDS011;36992;48.200;12.418;2022-11-20T09:38:54;1.48;;;0.70;;
50976;SDS011;36992;48.200;12.418;2022-11-20T09:41:29;1.48;;;0.65;;
50976;SDS011;36992;48.200;12.418;2022-11-20T09:44:12;1.38;;;0.65;;
50976;SDS011;36992;48.200;12.418;2022-11-20T09:46:55;2.28;;;0.60;;
50976;SDS011;36992;48.200;12.418;2022-11-20T09:49:31;2.75;;;1.10;;
50976;SDS011;36992;48.200;12.418;2022-11-20T09:52:08;2.75;;;1.00;;
50976;SDS011;36992;48.200;12.418;2022-11-20T09:54:42;3.22;;;1.30;;
50976;SDS011;36992;48.200;12.418;2022-11-20T09:57:10;2.30;;;0.77;;
50976;SDS011;36992;48.200;12.418;2022-11-20T09:59:40;4.28;;;1.73;;
50976;SDS011;36992;48.200;12.418;2022-11-20T10:02:15;3.80;;;1.58;;
50976;SDS011;36992;48.200;12.418;2022-11-20T10:04:47;4.07;;;1.35;;
50976;SDS011;36992;48.200;12.418;2022-11-20T10:07:19;2.45;;;0.70;;
50976;SDS011;36992;48.200;12.418;2022-11-20T10:09:50;6.25;;;2.25;;
50976;SDS011;36992;48.200;12.418;2022-11-20T10:12:19;3.75;;;1.70;;
50976;SDS011;36992;48.200;12.418;2022-11-20T10:14:58;7.60;;;3.25;;
50976;SDS011;36992;48.200;12.418;2022-11-20T10:17:50;4.60;;;1.45;;
50976;SDS011;36992;48.200;12.418;2022-11-20T10:20:27;4.75;;;1.83;;
50976;SDS011;36992;48.200;12.418;2022-11-20T10:23:08;5.72;;;2.10;;
50976;SDS011;36992;48.200;12.418;2022-11-20T10:25:50;4.85;;;1.42;;
50976;SDS011;36992;48.200;12.418;2022-11-20T10:28:28;7.65;;;2.20;;
50976;SDS011;36992;48.200;12.418;2022-11-20T10:31:03;4.15;;;1.35;;
50976;SDS011;36992;48.200;12.418;2022-11-20T10:33:36;2.58;;;0.85;;
50976;SDS011;36992;48.200;12.418;2022-11-20T10:36:08;3.28;;;0.98;;
50976;SDS011;36992;48.200;12.418;2022-11-20T10:38:43;3.92;;;0.80;;
50976;SDS011;36992;48.200;12.418;2022-11-20T10:41:15;2.65;;;0.75;;
50976;SDS011;36992;48.200;12.418;2022-11-20T10:43:53;4.70;;;1.75;;
50976;SDS011;36992;48.200;12.418;2022-11-20T10:46:25;1.88;;;0.60;;
50976;SDS011;36992;48.200;12.418;2022-11-20T10:48:57;1.95;;;0.70;;
50976;SDS011;36992;48.200;12.418;2022-11-20T10:51:30;7.50;;;1.88;;
50976;SDS011;36992;48.200;12.418;2022-11-20T10:54:05;4.63;;;1.30;;
50976;SDS011;36992;48.200;12.418;2022-11-20T10:56:39;2.63;;;0.90;;
50976;SDS011;36992;48.200;12.418;2022-11-20T11:02:01;2.38;;;0.68;;
50976;SDS011;36992;48.200;12.418;2022-11-20T11:04:42;1.25;;;0.40;;
50976;SDS011;36992;48.200;12.418;2022-11-20T11:07:12;1.65;;;0.50;;
50976;SDS011;36992;48.200;12.418;2022-11-20T11:09:43;1.15;;;0.30;;
50976;SDS011;36992;48.200;12.418;2022-11-20T11:12:13;2.38;;;0.50;;
50976;SDS011;36992;48.200;12.418;2022-11-20T11:14:46;0.98;;;0.40;;
50976;SDS011;36992;48.200;12.418;2022-11-20T11:17:21;0.98;;;0.28;;
50976;SDS011;36992;48.200;12.418;2022-11-20T11:20:00;1.42;;;0.40;;
50976;SDS011;36992;48.200;12.418;2022-11-20T11:24:54;1.88;;;0.70;;
50976;SDS011;36992;48.200;12.418;2022-11-20T11:27:20;1.90;;;0.50;;
50976;SDS011;36992;48.200;12.418;2022-11-20T11:29:47;2.53;;;0.85;;
50976;SDS011;36992;48.200;12.418;2022-11-20T11:32:14;3.50;;;1.33;;
50976;SDS011;36992;48.200;12.418;2022-11-20T11:34:43;3.45;;;1.52;;
50976;SDS011;36992;48.200;12.418;2022-11-20T11:37:12;3.20;;;1.02;;
50976;SDS011;36992;48.200;12.418;2022-11-20T11:39:43;2.47;;;0.70;;
50976;SDS011;36992;48.200;12.418;2022-11-20T11:42:13;3.83;;;1.30;;
50976;SDS011;36992;48.200;12.418;2022-11-20T11:44:43;3.72;;;1.33;;
50976;SDS011;36992;48.200;12.418;2022-11-20T11:47:29;6.13;;;2.15;;
50976;SDS011;36992;48.200;12.418;2022-11-20T11:50:01;6.07;;;2.15;;
50976;SDS011;36992;48.200;12.418;2022-11-20T11:52:36;3.60;;;1.08;;
50976;SDS011;36992;48.200;12.418;2022-11-20T11:55:11;2.65;;;0.60;;
50976;SDS011;36992;48.200;12.418;2022-11-20T11:57:42;1.77;;;0.60;;
50976;SDS011;36992;48.200;12.418;2022-11-20T12:00:15;1.35;;;0.40;;
50976;SDS011;36992;48.200;12.418;2022-11-20T12:02:48;1.05;;;0.40;;
50976;SDS011;36992;48.200;12.418;2022-11-20T12:05:27;0.90;;;0.30;;
50976;SDS011;36992;48.200;12.418;2022-11-20T12:08:01;1.42;;;0.30;;
50976;SDS011;36992;48.200;12.418;2022-11-20T12:10:36;3.05;;;0.40;;
50976;SDS011;36992;48.200;12.418;2022-11-20T12:15:43;3.00;;;0.40;;
50976;SDS011;36992;48.200;12.418;2022-11-20T12:18:14;1.40;;;0.65;;
50976;SDS011;36992;48.200;12.418;2022-11-20T12:20:45;3.58;;;0.95;;
50976;SDS011;36992;48.200;12.418;2022-11-20T12:23:24;2.08;;;0.45;;
50976;SDS011;36992;48.200;12.418;2022-11-20T12:25:58;3.97;;;2.08;;
50976;SDS011;36992;48.200;12.418;2022-11-20T12:31:17;2.63;;;0.70;;
50976;SDS011;36992;48.200;12.418;2022-11-20T12:34:06;1.77;;;0.47;;
50976;SDS011;36992;48.200;12.418;2022-11-20T12:36:47;3.42;;;1.13;;
50976;SDS011;36992;48.200;12.418;2022-11-20T12:39:24;2.95;;;1.30;;
50976;SDS011;36992;48.200;12.418;2022-11-20T12:42:06;3.80;;;0.50;;
50976;SDS011;36992;48.200;12.418;2022-11-20T12:45:05;3.60;;;1.20;;
50976;SDS011;36992;48.200;12.418;2022-11-20T12:47:47;4.25;;;1.42;;
50976;SDS011;36992;48.200;12.418;2022-11-20T12:50:27;3.15;;;0.60;;
50976;SDS011;36992;48.200;12.418;2022-11-20T12:53:05;1.52;;;0.45;;
50976;SDS011;36992;48.200;12.418;2022-11-20T12:55:42;2.45;;;0.68;;
50976;SDS011;36992;48.200;12.418;2022-11-20T12:58:17;2.00;;;0.57;;
50976;SDS011;36992;48.200;12.418;2022-11-20T13:00:55;1.48;;;0.30;;
50976;SDS011;36992;48.200;12.418;2022-11-20T13:06:17;0.68;;;0.28;;
50976;SDS011;36992;48.200;12.418;2022-11-20T13:08:47;4.85;;;0.40;;
50976;SDS011;36992;48.200;12.418;2022-11-20T13:11:21;2.05;;;0.35;;
50976;SDS011;36992;48.200;12.418;2022-11-20T13:14:00;0.98;;;0.30;;
50976;SDS011;36992;48.200;12.418;2022-11-20T13:16:36;1.10;;;0.40;;
50976;SDS011;36992;48.200;12.418;2022-11-20T13:19:09;0.80;;;0.30;;
50976;SDS011;36992;48.200;12.418;2022-11-20T13:21:40;1.08;;;0.20;;
50976;SDS011;36992;48.200;12.418;2022-11-20T13:24:20;0.75;;;0.20;;
50976;SDS011;36992;48.200;12.418;2022-11-20T13:27:00;0.93;;;0.10;;
50976;SDS011;36992;48.200;12.418;2022-11-20T13:29:28;0.50;;;0.13;;
50976;SDS011;36992;48.200;12.418;2022-11-20T13:32:02;0.57;;;0.20;;
50976;SDS011;36992;48.200;12.418;2022-11-20T13:34:31;1.67;;;0.60;;
50976;SDS011;36992;48.200;12.418;2022-11-20T13:36:59;1.02;;;0.30;;
50976;SDS011;36992;48.200;12.418;2022-11-20T13:39:29;1.67;;;0.50;;
50976;SDS011;36992;48.200;12.418;2022-11-20T13:41:58;3.15;;;0.80;;
50976;SDS011;36992;48.200;12.418;2022-11-20T13:44:29;3.35;;;0.55;;
50976;SDS011;36992;48.200;12.418;2022-11-20T13:47:00;2.15;;;0.80;;
50976;SDS011;36992;48.200;12.418;2022-11-20T13:49:29;2.65;;;0.60;;
50976;SDS011;36992;48.200;12.418;2022-11-20T13:52:02;3.03;;;1.00;;
50976;SDS011;36992;48.200;12.418;2022-11-20T13:55:07;1.88;;;0.50;;
50976;SDS011;36992;48.200;12.418;2022-11-20T13:57:46;4.07;;;0.70;;
50976;SDS011;36992;48.200;12.418;2022-11-20T14:00:23;2.13;;;0.68;;
50976;SDS011;36992;48.200;12.418;2022-11-20T14:02:57;1.70;;;0.60;;
50976;SDS011;36992;48.200;12.418;2022-11-20T14:05:28;2.22;;;0.60;;
50976;SDS011;36992;48.200;12.418;2022-11-20T14:07:59;1.08;;;0.40;;
50976;SDS011;36992;48.200;12.418;2022-11-20T14:10:29;2.05;;;0.73;;
50976;SDS011;36992;48.200;12.418;2022-11-20T14:12:57;2.03;;;0.47;;
50976;SDS011;36992;48.200;12.418;2022-11-20T14:15:24;2.58;;;0.57;;
50976;SDS011;36992;48.200;12.418;2022-11-20T14:17:53;1.38;;;0.40;;
50976;SDS011;36992;48.200;12.418;2022-11-20T14:20:20;1.67;;;0.50;;
50976;SDS011;36992;48.200;12.418;2022-11-20T14:22:53;1.10;;;0.30;;
50976;SDS011;36992;48.200;12.418;2022-11-20T14:25:25;0.90;;;0.28;;
50976;SDS011;36992;48.200;12.418;2022-11-20T14:27:53;1.42;;;0.40;;
50976;SDS011;36992;48.200;12.418;2022-11-20T14:30:24;1.02;;;0.40;;
50976;SDS011;36992;48.200;12.418;2022-11-20T14:32:53;3.10;;;1.08;;
50976;SDS011;36992;48.200;12.418;2022-11-20T14:35:24;5.68;;;1.95;;
50976;SDS011;36992;48.200;12.418;2022-11-20T14:37:52;6.35;;;1.63;;
50976;SDS011;36992;48.200;12.418;2022-11-20T14:40:22;5.40;;;1.70;;
50976;SDS011;36992;48.200;12.418;2022-11-20T14:42:51;6.97;;;2.72;;
50976;SDS011;36992;48.200;12.418;2022-11-20T14:45:18;4.28;;;1.50;;
50976;SDS011;36992;48.200;12.418;2022-11-20T14:47:46;2.35;;;0.60;;
50976;SDS011;36992;48.200;12.418;2022-11-20T14:50:16;1.80;;;0.40;;
50976;SDS011;36992;48.200;12.418;2022-11-20T14:52:49;1.45;;;0.40;;
50976;SDS011;36992;48.200;12.418;2022-11-20T14:55:24;0.38;;;0.20;;
50976;SDS011;36992;48.200;12.418;2022-11-20T14:57:54;1.03;;;0.30;;
50976;SDS011;36992;48.200;12.418;2022-11-20T15:00:22;1.55;;;0.50;;